Langtry, Texas
Current Conditions -  °F | °C
As of 3:53 PM on Wednesday 22 Oct 2014 (Local Time) from KDRT Reporting Station
Light Rain Light Rain  
Wind Chill: 69°   Ceiling: 10000
Heat Index: 69°   Visibility: 4mi
Dew Point: 64°   Wind: 3mph
Humidity: 84%   Direction: 240°WSW
Pressure: 30.06"   Gusts: NA
Location:  29.81°N, 101.56°W
Report Text: KDRT 222053Z AUTO 24003KT 4SM -RA OVC100 21/18 A3006 RMK AO2 RAE01B18 SLP166 P0004 60007 T02060178 56014
Loading
Personal Weather Stations






























Interactive Weather Map
Tropical Storm Tracking
New forecast layout! Learn more

10-Day Weather Forecast

Advertisements
Track Severe Weather on mobile